sensor_id;sensor_type;location;lat;lon;timestamp;P1;durP1;ratioP1;P2;durP2;ratioP2
71610;SDS011;59459;51.172;6.682;2024-02-28T00:01:19;38.10;;;14.07;;
71610;SDS011;59459;51.172;6.682;2024-02-28T00:03:44;43.37;;;15.03;;
71610;SDS011;59459;51.172;6.682;2024-02-28T00:06:10;37.33;;;15.93;;
71610;SDS011;59459;51.172;6.682;2024-02-28T00:08:35;36.30;;;13.13;;
71610;SDS011;59459;51.172;6.682;2024-02-28T00:11:01;42.25;;;14.55;;
71610;SDS011;59459;51.172;6.682;2024-02-28T00:13:26;43.03;;;14.10;;
71610;SDS011;59459;51.172;6.682;2024-02-28T00:15:51;38.57;;;15.03;;
71610;SDS011;59459;51.172;6.682;2024-02-28T00:18:16;44.83;;;15.03;;
71610;SDS011;59459;51.172;6.682;2024-02-28T00:20:43;40.17;;;15.40;;
71610;SDS011;59459;51.172;6.682;2024-02-28T00:23:09;41.80;;;15.30;;
71610;SDS011;59459;51.172;6.682;2024-02-28T00:25:34;38.80;;;14.10;;
71610;SDS011;59459;51.172;6.682;2024-02-28T00:28:00;44.90;;;15.20;;
71610;SDS011;59459;51.172;6.682;2024-02-28T00:30:25;39.77;;;13.70;;
71610;SDS011;59459;51.172;6.682;2024-02-28T00:32:52;36.58;;;14.15;;
71610;SDS011;59459;51.172;6.682;2024-02-28T00:35:18;32.30;;;11.70;;
71610;SDS011;59459;51.172;6.682;2024-02-28T00:37:43;45.20;;;14.23;;
71610;SDS011;59459;51.172;6.682;2024-02-28T00:40:08;39.37;;;13.50;;
71610;SDS011;59459;51.172;6.682;2024-02-28T00:42:34;39.53;;;14.43;;
71610;SDS011;59459;51.172;6.682;2024-02-28T00:44:59;39.00;;;14.23;;
71610;SDS011;59459;51.172;6.682;2024-02-28T00:47:24;37.67;;;13.50;;
71610;SDS011;59459;51.172;6.682;2024-02-28T00:49:50;40.53;;;12.85;;
71610;SDS011;59459;51.172;6.682;2024-02-28T00:52:15;42.63;;;15.07;;
71610;SDS011;59459;51.172;6.682;2024-02-28T00:54:41;35.40;;;13.17;;
71610;SDS011;59459;51.172;6.682;2024-02-28T00:57:06;40.37;;;13.10;;
71610;SDS011;59459;51.172;6.682;2024-02-28T00:59:31;39.57;;;13.57;;
71610;SDS011;59459;51.172;6.682;2024-02-28T01:01:56;35.67;;;14.13;;
71610;SDS011;59459;51.172;6.682;2024-02-28T01:04:21;35.37;;;13.17;;
71610;SDS011;59459;51.172;6.682;2024-02-28T01:06:47;33.37;;;12.87;;
71610;SDS011;59459;51.172;6.682;2024-02-28T01:09:12;37.73;;;15.13;;
71610;SDS011;59459;51.172;6.682;2024-02-28T01:11:37;36.87;;;12.77;;
71610;SDS011;59459;51.172;6.682;2024-02-28T01:14:02;34.83;;;12.70;;
71610;SDS011;59459;51.172;6.682;2024-02-28T01:16:27;33.30;;;13.40;;
71610;SDS011;59459;51.172;6.682;2024-02-28T01:18:53;34.47;;;13.40;;
71610;SDS011;59459;51.172;6.682;2024-02-28T01:21:18;41.23;;;13.93;;
71610;SDS011;59459;51.172;6.682;2024-02-28T01:23:44;33.08;;;12.80;;
71610;SDS011;59459;51.172;6.682;2024-02-28T01:26:09;36.77;;;13.53;;
71610;SDS011;59459;51.172;6.682;2024-02-28T01:28:34;34.87;;;12.90;;
71610;SDS011;59459;51.172;6.682;2024-02-28T01:30:59;38.13;;;13.63;;
71610;SDS011;59459;51.172;6.682;2024-02-28T01:33:26;40.15;;;13.77;;
71610;SDS011;59459;51.172;6.682;2024-02-28T01:35:51;39.47;;;12.17;;
71610;SDS011;59459;51.172;6.682;2024-02-28T01:38:16;38.27;;;13.73;;
71610;SDS011;59459;51.172;6.682;2024-02-28T01:40:45;42.00;;;13.17;;
71610;SDS011;59459;51.172;6.682;2024-02-28T01:43:11;32.65;;;12.35;;
71610;SDS011;59459;51.172;6.682;2024-02-28T01:45:36;35.40;;;12.10;;
71610;SDS011;59459;51.172;6.682;2024-02-28T01:48:02;33.97;;;12.97;;
71610;SDS011;59459;51.172;6.682;2024-02-28T01:50:27;30.88;;;11.50;;
71610;SDS011;59459;51.172;6.682;2024-02-28T01:52:52;34.30;;;12.80;;
71610;SDS011;59459;51.172;6.682;2024-02-28T01:55:18;30.93;;;13.03;;
71610;SDS011;59459;51.172;6.682;2024-02-28T01:57:43;37.67;;;12.67;;
71610;SDS011;59459;51.172;6.682;2024-02-28T02:00:08;39.70;;;13.27;;
71610;SDS011;59459;51.172;6.682;2024-02-28T02:02:34;39.33;;;12.80;;
71610;SDS011;59459;51.172;6.682;2024-02-28T02:04:59;35.33;;;13.77;;
71610;SDS011;59459;51.172;6.682;2024-02-28T02:07:24;30.63;;;12.07;;
71610;SDS011;59459;51.172;6.682;2024-02-28T02:09:51;39.07;;;13.13;;
71610;SDS011;59459;51.172;6.682;2024-02-28T02:12:17;33.50;;;12.18;;
71610;SDS011;59459;51.172;6.682;2024-02-28T02:14:46;36.10;;;13.30;;
71610;SDS011;59459;51.172;6.682;2024-02-28T02:17:11;35.45;;;12.65;;
71610;SDS011;59459;51.172;6.682;2024-02-28T02:19:37;32.40;;;12.73;;
71610;SDS011;59459;51.172;6.682;2024-02-28T02:22:02;38.50;;;13.37;;
71610;SDS011;59459;51.172;6.682;2024-02-28T02:24:28;30.00;;;11.68;;
71610;SDS011;59459;51.172;6.682;2024-02-28T02:26:59;30.03;;;12.83;;
71610;SDS011;59459;51.172;6.682;2024-02-28T02:29:25;35.67;;;13.35;;
71610;SDS011;59459;51.172;6.682;2024-02-28T02:31:50;36.43;;;13.07;;
71610;SDS011;59459;51.172;6.682;2024-02-28T02:34:15;38.53;;;12.93;;
71610;SDS011;59459;51.172;6.682;2024-02-28T02:36:40;34.47;;;14.00;;
71610;SDS011;59459;51.172;6.682;2024-02-28T02:39:06;36.43;;;12.20;;
71610;SDS011;59459;51.172;6.682;2024-02-28T02:41:33;33.17;;;12.38;;
71610;SDS011;59459;51.172;6.682;2024-02-28T02:43:58;36.90;;;12.17;;
71610;SDS011;59459;51.172;6.682;2024-02-28T02:46:23;29.30;;;10.80;;
71610;SDS011;59459;51.172;6.682;2024-02-28T02:48:49;36.07;;;12.30;;
71610;SDS011;59459;51.172;6.682;2024-02-28T02:51:14;32.33;;;11.77;;
71610;SDS011;59459;51.172;6.682;2024-02-28T02:53:39;32.80;;;13.20;;
71610;SDS011;59459;51.172;6.682;2024-02-28T02:56:04;32.10;;;13.07;;
71610;SDS011;59459;51.172;6.682;2024-02-28T02:58:30;36.17;;;13.60;;
71610;SDS011;59459;51.172;6.682;2024-02-28T03:00:55;32.43;;;11.13;;
71610;SDS011;59459;51.172;6.682;2024-02-28T03:03:20;33.20;;;11.33;;
71610;SDS011;59459;51.172;6.682;2024-02-28T03:05:45;31.13;;;12.50;;
71610;SDS011;59459;51.172;6.682;2024-02-28T03:08:10;32.83;;;12.23;;
71610;SDS011;59459;51.172;6.682;2024-02-28T03:10:36;36.17;;;12.00;;
71610;SDS011;59459;51.172;6.682;2024-02-28T03:13:01;33.73;;;12.87;;
71610;SDS011;59459;51.172;6.682;2024-02-28T03:15:26;32.35;;;12.48;;
71610;SDS011;59459;51.172;6.682;2024-02-28T03:17:52;37.63;;;12.57;;
71610;SDS011;59459;51.172;6.682;2024-02-28T03:20:17;38.67;;;12.90;;
71610;SDS011;59459;51.172;6.682;2024-02-28T03:22:42;34.57;;;11.50;;
71610;SDS011;59459;51.172;6.682;2024-02-28T03:25:08;34.10;;;12.27;;
71610;SDS011;59459;51.172;6.682;2024-02-28T03:27:33;37.67;;;13.27;;
71610;SDS011;59459;51.172;6.682;2024-02-28T03:29:58;35.70;;;12.77;;
71610;SDS011;59459;51.172;6.682;2024-02-28T03:32:24;34.50;;;13.33;;
71610;SDS011;59459;51.172;6.682;2024-02-28T03:34:49;40.97;;;13.37;;
71610;SDS011;59459;51.172;6.682;2024-02-28T03:37:14;32.73;;;12.40;;
71610;SDS011;59459;51.172;6.682;2024-02-28T03:39:39;43.13;;;14.05;;
71610;SDS011;59459;51.172;6.682;2024-02-28T03:42:05;35.23;;;14.80;;
71610;SDS011;59459;51.172;6.682;2024-02-28T03:44:30;41.97;;;14.43;;
71610;SDS011;59459;51.172;6.682;2024-02-28T03:46:55;37.07;;;13.57;;
71610;SDS011;59459;51.172;6.682;2024-02-28T03:49:20;46.63;;;15.67;;
71610;SDS011;59459;51.172;6.682;2024-02-28T03:51:45;42.37;;;16.93;;
71610;SDS011;59459;51.172;6.682;2024-02-28T03:54:11;46.47;;;15.60;;
71610;SDS011;59459;51.172;6.682;2024-02-28T03:56:36;51.20;;;16.63;;
71610;SDS011;59459;51.172;6.682;2024-02-28T03:59:01;39.63;;;13.83;;
71610;SDS011;59459;51.172;6.682;2024-02-28T04:01:26;48.00;;;14.80;;
71610;SDS011;59459;51.172;6.682;2024-02-28T04:03:52;47.97;;;16.07;;
71610;SDS011;59459;51.172;6.682;2024-02-28T04:06:17;57.10;;;18.87;;
71610;SDS011;59459;51.172;6.682;2024-02-28T04:08:42;52.07;;;18.47;;
71610;SDS011;59459;51.172;6.682;2024-02-28T04:11:07;56.00;;;17.90;;
71610;SDS011;59459;51.172;6.682;2024-02-28T04:13:32;59.10;;;19.80;;
71610;SDS011;59459;51.172;6.682;2024-02-28T04:15:58;59.43;;;21.03;;
71610;SDS011;59459;51.172;6.682;2024-02-28T04:18:23;62.23;;;21.60;;
71610;SDS011;59459;51.172;6.682;2024-02-28T04:20:48;64.03;;;22.27;;
71610;SDS011;59459;51.172;6.682;2024-02-28T04:23:13;63.87;;;24.47;;
71610;SDS011;59459;51.172;6.682;2024-02-28T04:25:39;70.53;;;24.07;;
71610;SDS011;59459;51.172;6.682;2024-02-28T04:28:05;80.85;;;23.63;;
71610;SDS011;59459;51.172;6.682;2024-02-28T04:30:31;73.43;;;23.13;;
71610;SDS011;59459;51.172;6.682;2024-02-28T04:32:56;64.37;;;21.07;;
71610;SDS011;59459;51.172;6.682;2024-02-28T04:35:21;65.20;;;20.67;;
71610;SDS011;59459;51.172;6.682;2024-02-28T04:37:46;62.77;;;19.57;;
71610;SDS011;59459;51.172;6.682;2024-02-28T04:40:12;65.70;;;20.17;;
71610;SDS011;59459;51.172;6.682;2024-02-28T04:42:37;69.68;;;21.63;;
71610;SDS011;59459;51.172;6.682;2024-02-28T04:45:03;64.23;;;21.33;;
71610;SDS011;59459;51.172;6.682;2024-02-28T04:47:28;69.57;;;21.30;;
71610;SDS011;59459;51.172;6.682;2024-02-28T04:49:54;58.33;;;19.98;;
71610;SDS011;59459;51.172;6.682;2024-02-28T04:52:19;63.30;;;19.63;;
71610;SDS011;59459;51.172;6.682;2024-02-28T04:54:45;68.90;;;20.27;;
71610;SDS011;59459;51.172;6.682;2024-02-28T04:57:10;66.70;;;19.00;;
71610;SDS011;59459;51.172;6.682;2024-02-28T04:59:35;65.03;;;19.33;;
71610;SDS011;59459;51.172;6.682;2024-02-28T05:02:00;66.33;;;21.93;;
71610;SDS011;59459;51.172;6.682;2024-02-28T05:04:25;66.20;;;20.37;;
71610;SDS011;59459;51.172;6.682;2024-02-28T05:06:51;85.38;;;23.70;;
71610;SDS011;59459;51.172;6.682;2024-02-28T05:09:17;73.90;;;21.30;;
71610;SDS011;59459;51.172;6.682;2024-02-28T05:11:42;81.03;;;23.10;;
71610;SDS011;59459;51.172;6.682;2024-02-28T05:14:09;76.75;;;21.60;;
71610;SDS011;59459;51.172;6.682;2024-02-28T05:16:35;77.40;;;25.08;;
71610;SDS011;59459;51.172;6.682;2024-02-28T05:19:00;73.23;;;21.87;;
71610;SDS011;59459;51.172;6.682;2024-02-28T05:21:26;79.07;;;21.20;;
71610;SDS011;59459;51.172;6.682;2024-02-28T05:23:51;73.83;;;20.70;;
71610;SDS011;59459;51.172;6.682;2024-02-28T05:26:16;70.27;;;21.13;;
71610;SDS011;59459;51.172;6.682;2024-02-28T05:28:41;77.60;;;23.37;;
71610;SDS011;59459;51.172;6.682;2024-02-28T05:31:26;75.30;;;22.83;;
71610;SDS011;59459;51.172;6.682;2024-02-28T05:33:52;76.45;;;21.95;;
71610;SDS011;59459;51.172;6.682;2024-02-28T05:36:19;83.40;;;22.07;;
71610;SDS011;59459;51.172;6.682;2024-02-28T05:38:44;86.60;;;24.27;;
71610;SDS011;59459;51.172;6.682;2024-02-28T05:41:09;89.82;;;25.02;;
71610;SDS011;59459;51.172;6.682;2024-02-28T05:43:36;89.30;;;24.60;;
71610;SDS011;59459;51.172;6.682;2024-02-28T05:46:02;86.67;;;23.80;;
71610;SDS011;59459;51.172;6.682;2024-02-28T05:48:27;93.35;;;25.88;;
71610;SDS011;59459;51.172;6.682;2024-02-28T05:50:52;94.53;;;24.97;;
71610;SDS011;59459;51.172;6.682;2024-02-28T05:53:18;88.43;;;24.13;;
71610;SDS011;59459;51.172;6.682;2024-02-28T05:55:44;87.13;;;25.17;;
71610;SDS011;59459;51.172;6.682;2024-02-28T05:58:09;98.75;;;24.90;;
71610;SDS011;59459;51.172;6.682;2024-02-28T06:00:34;86.33;;;24.10;;
71610;SDS011;59459;51.172;6.682;2024-02-28T06:03:00;91.73;;;24.27;;
71610;SDS011;59459;51.172;6.682;2024-02-28T06:05:25;91.80;;;25.60;;
71610;SDS011;59459;51.172;6.682;2024-02-28T06:07:50;87.33;;;24.23;;
71610;SDS011;59459;51.172;6.682;2024-02-28T06:10:16;83.73;;;23.20;;
71610;SDS011;59459;51.172;6.682;2024-02-28T06:12:41;92.70;;;25.43;;
71610;SDS011;59459;51.172;6.682;2024-02-28T06:15:06;86.93;;;25.47;;
71610;SDS011;59459;51.172;6.682;2024-02-28T06:17:31;89.50;;;23.67;;
71610;SDS011;59459;51.172;6.682;2024-02-28T06:19:57;81.93;;;23.17;;
71610;SDS011;59459;51.172;6.682;2024-02-28T06:22:22;90.03;;;24.43;;
71610;SDS011;59459;51.172;6.682;2024-02-28T06:24:47;92.00;;;24.40;;
71610;SDS011;59459;51.172;6.682;2024-02-28T06:27:12;96.50;;;23.90;;
71610;SDS011;59459;51.172;6.682;2024-02-28T06:29:41;79.97;;;23.67;;
71610;SDS011;59459;51.172;6.682;2024-02-28T06:32:06;87.57;;;23.23;;
71610;SDS011;59459;51.172;6.682;2024-02-28T06:34:31;85.70;;;24.63;;
71610;SDS011;59459;51.172;6.682;2024-02-28T06:36:57;76.87;;;21.87;;
71610;SDS011;59459;51.172;6.682;2024-02-28T06:39:22;78.13;;;23.27;;
71610;SDS011;59459;51.172;6.682;2024-02-28T06:41:47;89.93;;;23.40;;
71610;SDS011;59459;51.172;6.682;2024-02-28T06:44:14;82.50;;;23.63;;
71610;SDS011;59459;51.172;6.682;2024-02-28T06:46:39;81.10;;;24.13;;
71610;SDS011;59459;51.172;6.682;2024-02-28T06:49:05;95.73;;;22.70;;
71610;SDS011;59459;51.172;6.682;2024-02-28T06:51:30;91.57;;;25.10;;
71610;SDS011;59459;51.172;6.682;2024-02-28T06:53:55;87.90;;;21.73;;
71610;SDS011;59459;51.172;6.682;2024-02-28T06:56:20;79.60;;;22.53;;
71610;SDS011;59459;51.172;6.682;2024-02-28T06:58:45;81.33;;;24.60;;
71610;SDS011;59459;51.172;6.682;2024-02-28T07:01:11;75.40;;;23.87;;
71610;SDS011;59459;51.172;6.682;2024-02-28T07:03:36;86.07;;;22.13;;
71610;SDS011;59459;51.172;6.682;2024-02-28T07:06:01;88.27;;;23.00;;
71610;SDS011;59459;51.172;6.682;2024-02-28T07:08:26;84.50;;;22.57;;
71610;SDS011;59459;51.172;6.682;2024-02-28T07:10:52;85.10;;;24.70;;
71610;SDS011;59459;51.172;6.682;2024-02-28T07:13:19;86.00;;;25.02;;
71610;SDS011;59459;51.172;6.682;2024-02-28T07:15:44;81.18;;;22.15;;
71610;SDS011;59459;51.172;6.682;2024-02-28T07:18:09;88.00;;;22.30;;
71610;SDS011;59459;51.172;6.682;2024-02-28T07:20:35;75.43;;;21.73;;
71610;SDS011;59459;51.172;6.682;2024-02-28T07:23:00;85.90;;;22.60;;
71610;SDS011;59459;51.172;6.682;2024-02-28T07:25:25;85.57;;;23.10;;
71610;SDS011;59459;51.172;6.682;2024-02-28T07:27:50;68.07;;;20.87;;
71610;SDS011;59459;51.172;6.682;2024-02-28T07:30:16;82.90;;;23.60;;
71610;SDS011;59459;51.172;6.682;2024-02-28T07:32:41;91.37;;;24.40;;
71610;SDS011;59459;51.172;6.682;2024-02-28T07:35:06;81.93;;;23.03;;
71610;SDS011;59459;51.172;6.682;2024-02-28T07:37:32;87.82;;;23.77;;
71610;SDS011;59459;51.172;6.682;2024-02-28T07:39:57;86.90;;;23.40;;
71610;SDS011;59459;51.172;6.682;2024-02-28T07:42:22;87.80;;;24.10;;
71610;SDS011;59459;51.172;6.682;2024-02-28T07:44:47;77.90;;;23.10;;
71610;SDS011;59459;51.172;6.682;2024-02-28T07:47:14;73.47;;;19.55;;
71610;SDS011;59459;51.172;6.682;2024-02-28T07:49:39;80.50;;;20.80;;
71610;SDS011;59459;51.172;6.682;2024-02-28T07:52:05;68.70;;;21.00;;
71610;SDS011;59459;51.172;6.682;2024-02-28T07:54:30;75.13;;;20.03;;
71610;SDS011;59459;51.172;6.682;2024-02-28T07:56:55;69.60;;;19.57;;
71610;SDS011;59459;51.172;6.682;2024-02-28T07:59:20;81.87;;;22.77;;
71610;SDS011;59459;51.172;6.682;2024-02-28T08:01:45;73.50;;;22.27;;
71610;SDS011;59459;51.172;6.682;2024-02-28T08:04:11;84.23;;;24.80;;
71610;SDS011;59459;51.172;6.682;2024-02-28T08:06:36;68.73;;;18.63;;
71610;SDS011;59459;51.172;6.682;2024-02-28T08:09:01;80.00;;;20.77;;
71610;SDS011;59459;51.172;6.682;2024-02-28T08:11:29;75.72;;;21.48;;
71610;SDS011;59459;51.172;6.682;2024-02-28T08:13:54;63.90;;;19.37;;
71610;SDS011;59459;51.172;6.682;2024-02-28T08:16:19;67.93;;;21.23;;
71610;SDS011;59459;51.172;6.682;2024-02-28T08:18:44;81.00;;;21.43;;
71610;SDS011;59459;51.172;6.682;2024-02-28T08:21:10;80.53;;;24.13;;
71610;SDS011;59459;51.172;6.682;2024-02-28T08:23:35;79.50;;;23.50;;
71610;SDS011;59459;51.172;6.682;2024-02-28T08:26:00;80.20;;;24.43;;
71610;SDS011;59459;51.172;6.682;2024-02-28T08:28:25;81.20;;;21.40;;
71610;SDS011;59459;51.172;6.682;2024-02-28T08:30:50;77.27;;;21.17;;
71610;SDS011;59459;51.172;6.682;2024-02-28T08:33:16;71.13;;;20.20;;
71610;SDS011;59459;51.172;6.682;2024-02-28T08:35:41;86.63;;;23.03;;
71610;SDS011;59459;51.172;6.682;2024-02-28T08:38:07;76.30;;;23.45;;
71610;SDS011;59459;51.172;6.682;2024-02-28T08:40:33;73.33;;;21.37;;
71610;SDS011;59459;51.172;6.682;2024-02-28T08:42:58;58.20;;;16.40;;
71610;SDS011;59459;51.172;6.682;2024-02-28T08:45:23;72.60;;;20.37;;
71610;SDS011;59459;51.172;6.682;2024-02-28T08:47:48;66.50;;;19.53;;
71610;SDS011;59459;51.172;6.682;2024-02-28T08:50:14;64.03;;;19.23;;
71610;SDS011;59459;51.172;6.682;2024-02-28T08:52:39;71.73;;;19.40;;
71610;SDS011;59459;51.172;6.682;2024-02-28T08:55:04;71.70;;;21.07;;
71610;SDS011;59459;51.172;6.682;2024-02-28T08:57:29;79.27;;;23.47;;
71610;SDS011;59459;51.172;6.682;2024-02-28T08:59:55;73.17;;;20.83;;
71610;SDS011;59459;51.172;6.682;2024-02-28T09:02:20;64.57;;;19.50;;
71610;SDS011;59459;51.172;6.682;2024-02-28T09:04:45;66.23;;;20.93;;
71610;SDS011;59459;51.172;6.682;2024-02-28T09:07:11;70.30;;;21.67;;
71610;SDS011;59459;51.172;6.682;2024-02-28T09:09:40;63.70;;;19.70;;
71610;SDS011;59459;51.172;6.682;2024-02-28T09:12:05;71.13;;;20.50;;
71610;SDS011;59459;51.172;6.682;2024-02-28T09:14:30;74.60;;;21.73;;
71610;SDS011;59459;51.172;6.682;2024-02-28T09:16:56;74.87;;;20.77;;
71610;SDS011;59459;51.172;6.682;2024-02-28T09:19:28;69.03;;;19.47;;
71610;SDS011;59459;51.172;6.682;2024-02-28T09:21:54;72.97;;;19.95;;
71610;SDS011;59459;51.172;6.682;2024-02-28T09:24:19;66.10;;;20.67;;
71610;SDS011;59459;51.172;6.682;2024-02-28T09:26:44;69.37;;;21.37;;
71610;SDS011;59459;51.172;6.682;2024-02-28T09:29:10;59.07;;;19.03;;
71610;SDS011;59459;51.172;6.682;2024-02-28T09:31:35;63.87;;;18.93;;
71610;SDS011;59459;51.172;6.682;2024-02-28T09:34:00;60.17;;;18.83;;
71610;SDS011;59459;51.172;6.682;2024-02-28T09:36:29;65.63;;;19.70;;
71610;SDS011;59459;51.172;6.682;2024-02-28T09:38:54;64.37;;;20.00;;
71610;SDS011;59459;51.172;6.682;2024-02-28T09:41:19;57.60;;;18.80;;
71610;SDS011;59459;51.172;6.682;2024-02-28T09:43:45;55.60;;;18.02;;
71610;SDS011;59459;51.172;6.682;2024-02-28T09:46:11;51.70;;;17.07;;
71610;SDS011;59459;51.172;6.682;2024-02-28T09:48:40;54.38;;;17.50;;
71610;SDS011;59459;51.172;6.682;2024-02-28T09:51:06;61.53;;;18.42;;
71610;SDS011;59459;51.172;6.682;2024-02-28T09:53:31;61.73;;;18.43;;
71610;SDS011;59459;51.172;6.682;2024-02-28T09:55:56;56.30;;;17.17;;
71610;SDS011;59459;51.172;6.682;2024-02-28T09:58:21;47.93;;;14.23;;
71610;SDS011;59459;51.172;6.682;2024-02-28T10:00:48;55.85;;;17.90;;
71610;SDS011;59459;51.172;6.682;2024-02-28T10:03:14;54.53;;;17.00;;
71610;SDS011;59459;51.172;6.682;2024-02-28T10:05:40;57.35;;;18.25;;
71610;SDS011;59459;51.172;6.682;2024-02-28T10:08:05;46.13;;;15.17;;
71610;SDS011;59459;51.172;6.682;2024-02-28T10:10:31;52.73;;;15.73;;
71610;SDS011;59459;51.172;6.682;2024-02-28T10:12:56;54.77;;;17.77;;
71610;SDS011;59459;51.172;6.682;2024-02-28T10:15:22;52.38;;;16.50;;
71610;SDS011;59459;51.172;6.682;2024-02-28T10:17:47;47.60;;;16.83;;
71610;SDS011;59459;51.172;6.682;2024-02-28T10:20:13;49.27;;;14.87;;
71610;SDS011;59459;51.172;6.682;2024-02-28T10:22:39;44.03;;;15.50;;
71610;SDS011;59459;51.172;6.682;2024-02-28T10:25:04;51.20;;;16.50;;
71610;SDS011;59459;51.172;6.682;2024-02-28T10:27:33;42.37;;;15.17;;
71610;SDS011;59459;51.172;6.682;2024-02-28T10:29:59;43.63;;;14.25;;
71610;SDS011;59459;51.172;6.682;2024-02-28T10:32:24;39.10;;;14.40;;
71610;SDS011;59459;51.172;6.682;2024-02-28T10:34:49;45.53;;;15.97;;
71610;SDS011;59459;51.172;6.682;2024-02-28T10:37:15;53.17;;;16.97;;
71610;SDS011;59459;51.172;6.682;2024-02-28T10:39:41;46.05;;;16.02;;
71610;SDS011;59459;51.172;6.682;2024-02-28T10:42:06;43.60;;;16.50;;
71610;SDS011;59459;51.172;6.682;2024-02-28T10:44:33;50.90;;;16.45;;
71610;SDS011;59459;51.172;6.682;2024-02-28T10:47:00;44.92;;;16.50;;
71610;SDS011;59459;51.172;6.682;2024-02-28T10:49:26;45.78;;;15.35;;
71610;SDS011;59459;51.172;6.682;2024-02-28T10:51:51;53.97;;;15.70;;
71610;SDS011;59459;51.172;6.682;2024-02-28T10:54:20;45.53;;;14.95;;
71610;SDS011;59459;51.172;6.682;2024-02-28T10:56:46;44.77;;;15.37;;
71610;SDS011;59459;51.172;6.682;2024-02-28T10:59:12;48.35;;;16.38;;
71610;SDS011;59459;51.172;6.682;2024-02-28T11:01:41;44.83;;;16.07;;
71610;SDS011;59459;51.172;6.682;2024-02-28T11:04:07;42.17;;;15.45;;
71610;SDS011;59459;51.172;6.682;2024-02-28T11:06:33;44.60;;;14.40;;
71610;SDS011;59459;51.172;6.682;2024-02-28T11:08:58;41.93;;;14.97;;
71610;SDS011;59459;51.172;6.682;2024-02-28T11:11:24;42.00;;;12.48;;
71610;SDS011;59459;51.172;6.682;2024-02-28T11:13:52;46.17;;;15.80;;
71610;SDS011;59459;51.172;6.682;2024-02-28T11:16:25;38.63;;;14.57;;
71610;SDS011;59459;51.172;6.682;2024-02-28T11:18:50;44.70;;;15.40;;
71610;SDS011;59459;51.172;6.682;2024-02-28T11:21:15;42.60;;;16.20;;
71610;SDS011;59459;51.172;6.682;2024-02-28T11:23:41;43.10;;;16.58;;
71610;SDS011;59459;51.172;6.682;2024-02-28T11:26:10;45.47;;;15.70;;
71610;SDS011;59459;51.172;6.682;2024-02-28T11:28:35;42.17;;;16.13;;
71610;SDS011;59459;51.172;6.682;2024-02-28T11:31:01;38.53;;;13.43;;
71610;SDS011;59459;51.172;6.682;2024-02-28T11:33:26;42.65;;;13.65;;
71610;SDS011;59459;51.172;6.682;2024-02-28T11:35:56;37.07;;;12.40;;
71610;SDS011;59459;51.172;6.682;2024-02-28T11:38:23;38.33;;;14.30;;
71610;SDS011;59459;51.172;6.682;2024-02-28T11:40:49;37.78;;;14.38;;
71610;SDS011;59459;51.172;6.682;2024-02-28T11:43:15;34.88;;;12.75;;
71610;SDS011;59459;51.172;6.682;2024-02-28T11:45:40;34.53;;;13.87;;
71610;SDS011;59459;51.172;6.682;2024-02-28T11:48:06;33.65;;;13.18;;
71610;SDS011;59459;51.172;6.682;2024-02-28T11:50:32;35.23;;;14.03;;
71610;SDS011;59459;51.172;6.682;2024-02-28T11:52:57;33.87;;;14.27;;
71610;SDS011;59459;51.172;6.682;2024-02-28T11:55:24;40.97;;;14.97;;
71610;SDS011;59459;51.172;6.682;2024-02-28T11:57:49;38.33;;;14.55;;
71610;SDS011;59459;51.172;6.682;2024-02-28T12:00:15;35.17;;;13.23;;
71610;SDS011;59459;51.172;6.682;2024-02-28T12:02:40;33.40;;;12.77;;
71610;SDS011;59459;51.172;6.682;2024-02-28T12:05:06;36.50;;;13.57;;
71610;SDS011;59459;51.172;6.682;2024-02-28T12:07:31;42.40;;;14.87;;
71610;SDS011;59459;51.172;6.682;2024-02-28T12:09:57;35.30;;;13.67;;
71610;SDS011;59459;51.172;6.682;2024-02-28T12:12:22;32.10;;;12.82;;
71610;SDS011;59459;51.172;6.682;2024-02-28T12:14:48;35.03;;;13.60;;
71610;SDS011;59459;51.172;6.682;2024-02-28T12:17:16;38.60;;;14.40;;
71610;SDS011;59459;51.172;6.682;2024-02-28T12:19:41;37.17;;;13.82;;
71610;SDS011;59459;51.172;6.682;2024-02-28T12:22:07;36.17;;;13.30;;
71610;SDS011;59459;51.172;6.682;2024-02-28T12:24:33;33.58;;;13.35;;
71610;SDS011;59459;51.172;6.682;2024-02-28T12:26:58;40.53;;;14.57;;
71610;SDS011;59459;51.172;6.682;2024-02-28T12:29:23;35.57;;;15.17;;
71610;SDS011;59459;51.172;6.682;2024-02-28T12:31:48;39.13;;;13.67;;
71610;SDS011;59459;51.172;6.682;2024-02-28T12:34:14;34.83;;;13.37;;
71610;SDS011;59459;51.172;6.682;2024-02-28T12:36:40;33.83;;;13.45;;
71610;SDS011;59459;51.172;6.682;2024-02-28T12:39:05;33.33;;;13.60;;
71610;SDS011;59459;51.172;6.682;2024-02-28T12:41:31;36.17;;;13.47;;
71610;SDS011;59459;51.172;6.682;2024-02-28T12:43:56;33.13;;;13.33;;
71610;SDS011;59459;51.172;6.682;2024-02-28T12:46:22;32.75;;;12.40;;
71610;SDS011;59459;51.172;6.682;2024-02-28T12:48:47;32.67;;;11.60;;
71610;SDS011;59459;51.172;6.682;2024-02-28T12:53:56;31.73;;;12.20;;
71610;SDS011;59459;51.172;6.682;2024-02-28T12:56:21;32.93;;;13.07;;
71610;SDS011;59459;51.172;6.682;2024-02-28T12:58:46;29.67;;;11.67;;
71610;SDS011;59459;51.172;6.682;2024-02-28T13:01:11;31.20;;;11.60;;
71610;SDS011;59459;51.172;6.682;2024-02-28T13:03:37;55.93;;;13.93;;
71610;SDS011;59459;51.172;6.682;2024-02-28T13:06:02;24.93;;;10.17;;
71610;SDS011;59459;51.172;6.682;2024-02-28T13:08:27;25.60;;;9.93;;
71610;SDS011;59459;51.172;6.682;2024-02-28T13:10:53;27.57;;;10.00;;
71610;SDS011;59459;51.172;6.682;2024-02-28T13:13:18;28.37;;;9.77;;
71610;SDS011;59459;51.172;6.682;2024-02-28T13:15:43;29.30;;;10.30;;
71610;SDS011;59459;51.172;6.682;2024-02-28T13:18:10;27.42;;;11.60;;
71610;SDS011;59459;51.172;6.682;2024-02-28T13:20:36;28.50;;;10.10;;
71610;SDS011;59459;51.172;6.682;2024-02-28T13:23:03;30.75;;;10.65;;
71610;SDS011;59459;51.172;6.682;2024-02-28T13:25:28;24.87;;;10.33;;
71610;SDS011;59459;51.172;6.682;2024-02-28T13:27:53;28.03;;;10.67;;
71610;SDS011;59459;51.172;6.682;2024-02-28T13:30:18;32.50;;;10.30;;
71610;SDS011;59459;51.172;6.682;2024-02-28T13:32:44;28.27;;;9.90;;
71610;SDS011;59459;51.172;6.682;2024-02-28T13:35:09;25.35;;;9.25;;
71610;SDS011;59459;51.172;6.682;2024-02-28T13:37:35;24.90;;;10.13;;
71610;SDS011;59459;51.172;6.682;2024-02-28T13:40:02;27.73;;;10.37;;
71610;SDS011;59459;51.172;6.682;2024-02-28T13:42:29;28.27;;;9.52;;
71610;SDS011;59459;51.172;6.682;2024-02-28T13:44:54;29.70;;;10.87;;
71610;SDS011;59459;51.172;6.682;2024-02-28T13:47:20;31.57;;;10.40;;
71610;SDS011;59459;51.172;6.682;2024-02-28T13:49:45;24.27;;;9.97;;
71610;SDS011;59459;51.172;6.682;2024-02-28T13:52:12;27.97;;;9.87;;
71610;SDS011;59459;51.172;6.682;2024-02-28T13:54:37;29.77;;;10.97;;
71610;SDS011;59459;51.172;6.682;2024-02-28T13:57:02;27.53;;;9.80;;
71610;SDS011;59459;51.172;6.682;2024-02-28T13:59:29;27.65;;;10.23;;
71610;SDS011;59459;51.172;6.682;2024-02-28T14:01:55;26.33;;;10.13;;
71610;SDS011;59459;51.172;6.682;2024-02-28T14:04:20;29.23;;;10.13;;
71610;SDS011;59459;51.172;6.682;2024-02-28T14:06:45;28.80;;;9.47;;
71610;SDS011;59459;51.172;6.682;2024-02-28T14:09:13;25.33;;;9.47;;
71610;SDS011;59459;51.172;6.682;2024-02-28T14:11:39;22.83;;;9.05;;
71610;SDS011;59459;51.172;6.682;2024-02-28T14:14:04;22.33;;;9.10;;